LLIB/RPN METAR and TAF weather

Enter ICAO airport designator
Station Type Date Time Source
LLIB METAR 2019/05/21 14:50 UTC NOAA

LLIB 211450Z 32010KT CAVOK 33/06 Q1015


Station Type Date Time Source
LLIB Decoded METAR 2019/05/21 14:50 UTC NOAA

Galilee / Pina, Israel (LLIB) 32-58-48N 035-34-12E
May 21, 2019 - 10:50 AM EDT / 2019.05.21 1450 UTC
Wind: from the NW (320 degrees) at 12 MPH (10 KT):0
Visibility: greater than 7 mile(s):0
Temperature: 91 F (33 C)
Dew Point: 42 F (6 C)
Relative Humidity: 18%
Pressure (altimeter): 29.97 in. Hg (1015 hPa)
ob: LLIB 211450Z 32010KT CAVOK 33/06 Q1015
cycle: 15

Station Type Date Time Source
LLIB TAF 2019/05/21 12:36 UTC NOAA

TAF
AMD TAF
AMD LLIB 211532Z 2112/2212 CNL

Example: see airport list